sensor_id;sensor_type;location;lat;lon;timestamp;P1;durP1;ratioP1;P2;durP2;ratioP2
12591;SDS011;6361;52.120;5.108;2022-11-20T00:00:55;22.73;;;14.02;;
12591;SDS011;6361;52.120;5.108;2022-11-20T00:03:21;22.88;;;12.98;;
12591;SDS011;6361;52.120;5.108;2022-11-20T00:05:46;19.15;;;11.32;;
12591;SDS011;6361;52.120;5.108;2022-11-20T00:08:12;22.77;;;14.20;;
12591;SDS011;6361;52.120;5.108;2022-11-20T00:10:37;19.80;;;12.48;;
12591;SDS011;6361;52.120;5.108;2022-11-20T00:13:06;20.02;;;13.05;;
12591;SDS011;6361;52.120;5.108;2022-11-20T00:15:32;21.45;;;13.48;;
12591;SDS011;6361;52.120;5.108;2022-11-20T00:17:57;24.65;;;14.35;;
12591;SDS011;6361;52.120;5.108;2022-11-20T00:20:23;18.08;;;11.27;;
12591;SDS011;6361;52.120;5.108;2022-11-20T00:22:49;22.38;;;13.20;;
12591;SDS011;6361;52.120;5.108;2022-11-20T00:25:14;21.35;;;13.32;;
12591;SDS011;6361;52.120;5.108;2022-11-20T00:27:40;21.88;;;13.82;;
12591;SDS011;6361;52.120;5.108;2022-11-20T00:30:05;18.88;;;12.63;;
12591;SDS011;6361;52.120;5.108;2022-11-20T00:32:31;20.80;;;13.55;;
12591;SDS011;6361;52.120;5.108;2022-11-20T00:34:57;21.58;;;13.43;;
12591;SDS011;6361;52.120;5.108;2022-11-20T00:37:22;21.00;;;12.77;;
12591;SDS011;6361;52.120;5.108;2022-11-20T00:39:47;23.02;;;13.43;;
12591;SDS011;6361;52.120;5.108;2022-11-20T00:42:13;21.85;;;13.27;;
12591;SDS011;6361;52.120;5.108;2022-11-20T00:44:38;22.98;;;14.27;;
12591;SDS011;6361;52.120;5.108;2022-11-20T00:47:03;22.30;;;14.10;;
12591;SDS011;6361;52.120;5.108;2022-11-20T00:49:29;21.70;;;13.40;;
12591;SDS011;6361;52.120;5.108;2022-11-20T00:51:54;21.90;;;13.40;;
12591;SDS011;6361;52.120;5.108;2022-11-20T00:54:20;24.10;;;13.43;;
12591;SDS011;6361;52.120;5.108;2022-11-20T00:56:45;23.13;;;14.13;;
12591;SDS011;6361;52.120;5.108;2022-11-20T00:59:10;23.27;;;14.05;;
12591;SDS011;6361;52.120;5.108;2022-11-20T01:01:36;22.92;;;13.73;;
12591;SDS011;6361;52.120;5.108;2022-11-20T01:04:02;25.35;;;14.32;;
12591;SDS011;6361;52.120;5.108;2022-11-20T01:06:32;21.00;;;12.75;;
12591;SDS011;6361;52.120;5.108;2022-11-20T01:09:00;24.23;;;14.23;;
12591;SDS011;6361;52.120;5.108;2022-11-20T01:11:37;20.90;;;13.13;;
12591;SDS011;6361;52.120;5.108;2022-11-20T01:14:06;22.52;;;12.82;;
12591;SDS011;6361;52.120;5.108;2022-11-20T01:16:34;21.42;;;12.77;;
12591;SDS011;6361;52.120;5.108;2022-11-20T01:19:01;25.08;;;14.32;;
12591;SDS011;6361;52.120;5.108;2022-11-20T01:21:29;22.67;;;14.07;;
12591;SDS011;6361;52.120;5.108;2022-11-20T01:23:55;22.77;;;13.98;;
12591;SDS011;6361;52.120;5.108;2022-11-20T01:26:22;23.27;;;13.77;;
12591;SDS011;6361;52.120;5.108;2022-11-20T01:28:49;21.20;;;12.55;;
12591;SDS011;6361;52.120;5.108;2022-11-20T01:31:15;22.52;;;13.88;;
12591;SDS011;6361;52.120;5.108;2022-11-20T01:33:43;24.00;;;13.07;;
12591;SDS011;6361;52.120;5.108;2022-11-20T01:36:09;20.95;;;12.25;;
12591;SDS011;6361;52.120;5.108;2022-11-20T01:38:35;17.90;;;12.25;;
12591;SDS011;6361;52.120;5.108;2022-11-20T01:41:01;19.42;;;11.52;;
12591;SDS011;6361;52.120;5.108;2022-11-20T01:43:27;20.00;;;12.82;;
12591;SDS011;6361;52.120;5.108;2022-11-20T01:48:25;21.73;;;13.02;;
12591;SDS011;6361;52.120;5.108;2022-11-20T01:50:53;20.75;;;13.48;;
12591;SDS011;6361;52.120;5.108;2022-11-20T01:53:20;21.92;;;14.13;;
12591;SDS011;6361;52.120;5.108;2022-11-20T01:55:51;21.45;;;13.77;;
12591;SDS011;6361;52.120;5.108;2022-11-20T01:58:29;20.17;;;13.05;;
12591;SDS011;6361;52.120;5.108;2022-11-20T02:00:56;21.23;;;12.48;;
12591;SDS011;6361;52.120;5.108;2022-11-20T02:03:22;22.20;;;13.48;;
12591;SDS011;6361;52.120;5.108;2022-11-20T02:08:32;20.98;;;13.35;;
12591;SDS011;6361;52.120;5.108;2022-11-20T02:10:58;20.83;;;13.45;;
12591;SDS011;6361;52.120;5.108;2022-11-20T02:13:23;20.45;;;12.85;;
12591;SDS011;6361;52.120;5.108;2022-11-20T02:18:41;20.13;;;12.93;;
12591;SDS011;6361;52.120;5.108;2022-11-20T02:21:09;21.98;;;13.32;;
12591;SDS011;6361;52.120;5.108;2022-11-20T02:26:21;23.45;;;13.85;;
12591;SDS011;6361;52.120;5.108;2022-11-20T02:28:48;22.38;;;13.30;;
12591;SDS011;6361;52.120;5.108;2022-11-20T02:31:13;22.77;;;14.15;;
12591;SDS011;6361;52.120;5.108;2022-11-20T02:33:39;21.83;;;13.25;;
12591;SDS011;6361;52.120;5.108;2022-11-20T02:36:07;16.38;;;10.82;;
12591;SDS011;6361;52.120;5.108;2022-11-20T02:38:33;19.05;;;12.07;;
12591;SDS011;6361;52.120;5.108;2022-11-20T02:40:59;20.30;;;13.30;;
12591;SDS011;6361;52.120;5.108;2022-11-20T02:43:24;22.35;;;13.20;;
12591;SDS011;6361;52.120;5.108;2022-11-20T02:45:49;21.15;;;13.85;;
12591;SDS011;6361;52.120;5.108;2022-11-20T02:48:15;18.05;;;11.65;;
12591;SDS011;6361;52.120;5.108;2022-11-20T02:50:40;20.52;;;13.07;;
12591;SDS011;6361;52.120;5.108;2022-11-20T02:53:06;22.92;;;13.25;;
12591;SDS011;6361;52.120;5.108;2022-11-20T02:55:31;19.98;;;12.80;;
12591;SDS011;6361;52.120;5.108;2022-11-20T02:57:57;21.65;;;13.63;;
12591;SDS011;6361;52.120;5.108;2022-11-20T03:00:22;23.17;;;14.02;;
12591;SDS011;6361;52.120;5.108;2022-11-20T03:02:48;23.48;;;13.75;;
12591;SDS011;6361;52.120;5.108;2022-11-20T03:05:13;19.60;;;12.38;;
12591;SDS011;6361;52.120;5.108;2022-11-20T03:07:38;21.85;;;12.52;;
12591;SDS011;6361;52.120;5.108;2022-11-20T03:10:08;19.90;;;13.95;;
12591;SDS011;6361;52.120;5.108;2022-11-20T03:12:33;22.23;;;13.65;;
12591;SDS011;6361;52.120;5.108;2022-11-20T03:14:59;21.23;;;13.27;;
12591;SDS011;6361;52.120;5.108;2022-11-20T03:17:24;24.02;;;14.23;;
12591;SDS011;6361;52.120;5.108;2022-11-20T03:19:49;22.42;;;13.73;;
12591;SDS011;6361;52.120;5.108;2022-11-20T03:22:15;21.75;;;13.55;;
12591;SDS011;6361;52.120;5.108;2022-11-20T03:24:40;20.83;;;13.18;;
12591;SDS011;6361;52.120;5.108;2022-11-20T03:27:06;23.42;;;13.25;;
12591;SDS011;6361;52.120;5.108;2022-11-20T03:29:31;23.83;;;14.55;;
12591;SDS011;6361;52.120;5.108;2022-11-20T03:31:57;21.77;;;12.85;;
12591;SDS011;6361;52.120;5.108;2022-11-20T03:34:22;22.75;;;13.38;;
12591;SDS011;6361;52.120;5.108;2022-11-20T03:36:48;22.88;;;13.70;;
12591;SDS011;6361;52.120;5.108;2022-11-20T03:39:13;21.90;;;13.30;;
12591;SDS011;6361;52.120;5.108;2022-11-20T03:41:39;19.30;;;11.73;;
12591;SDS011;6361;52.120;5.108;2022-11-20T03:44:06;23.30;;;13.05;;
12591;SDS011;6361;52.120;5.108;2022-11-20T03:46:33;21.48;;;12.68;;
12591;SDS011;6361;52.120;5.108;2022-11-20T03:48:58;23.95;;;14.10;;
12591;SDS011;6361;52.120;5.108;2022-11-20T03:51:25;19.48;;;11.68;;
12591;SDS011;6361;52.120;5.108;2022-11-20T03:53:52;20.00;;;12.48;;
12591;SDS011;6361;52.120;5.108;2022-11-20T03:56:20;22.88;;;13.60;;
12591;SDS011;6361;52.120;5.108;2022-11-20T03:58:48;21.80;;;12.80;;
12591;SDS011;6361;52.120;5.108;2022-11-20T04:01:14;20.85;;;13.43;;
12591;SDS011;6361;52.120;5.108;2022-11-20T04:03:41;19.02;;;12.57;;
12591;SDS011;6361;52.120;5.108;2022-11-20T04:06:15;22.65;;;13.63;;
12591;SDS011;6361;52.120;5.108;2022-11-20T04:08:42;23.55;;;13.35;;
12591;SDS011;6361;52.120;5.108;2022-11-20T04:11:08;20.63;;;12.80;;
12591;SDS011;6361;52.120;5.108;2022-11-20T04:13:33;23.52;;;13.18;;
12591;SDS011;6361;52.120;5.108;2022-11-20T04:15:59;24.45;;;13.45;;
12591;SDS011;6361;52.120;5.108;2022-11-20T04:18:24;21.13;;;13.55;;
12591;SDS011;6361;52.120;5.108;2022-11-20T04:20:49;20.88;;;13.35;;
12591;SDS011;6361;52.120;5.108;2022-11-20T04:23:15;22.23;;;13.45;;
12591;SDS011;6361;52.120;5.108;2022-11-20T04:25:40;18.90;;;11.60;;
12591;SDS011;6361;52.120;5.108;2022-11-20T04:28:05;21.92;;;12.70;;
12591;SDS011;6361;52.120;5.108;2022-11-20T04:30:31;21.45;;;12.90;;
12591;SDS011;6361;52.120;5.108;2022-11-20T04:32:56;22.98;;;13.45;;
12591;SDS011;6361;52.120;5.108;2022-11-20T04:35:21;20.70;;;12.80;;
12591;SDS011;6361;52.120;5.108;2022-11-20T04:37:47;20.48;;;12.45;;
12591;SDS011;6361;52.120;5.108;2022-11-20T04:40:12;18.90;;;11.82;;
12591;SDS011;6361;52.120;5.108;2022-11-20T04:42:38;20.80;;;12.57;;
12591;SDS011;6361;52.120;5.108;2022-11-20T04:45:03;20.95;;;12.77;;
12591;SDS011;6361;52.120;5.108;2022-11-20T04:47:29;21.45;;;13.38;;
12591;SDS011;6361;52.120;5.108;2022-11-20T04:49:54;20.08;;;12.80;;
12591;SDS011;6361;52.120;5.108;2022-11-20T04:52:19;19.42;;;12.68;;
12591;SDS011;6361;52.120;5.108;2022-11-20T04:54:45;20.35;;;12.85;;
12591;SDS011;6361;52.120;5.108;2022-11-20T04:57:12;19.65;;;13.05;;
12591;SDS011;6361;52.120;5.108;2022-11-20T04:59:37;23.40;;;13.48;;
12591;SDS011;6361;52.120;5.108;2022-11-20T05:02:03;22.08;;;13.23;;
12591;SDS011;6361;52.120;5.108;2022-11-20T05:04:28;21.13;;;12.68;;
12591;SDS011;6361;52.120;5.108;2022-11-20T05:06:53;19.15;;;12.82;;
12591;SDS011;6361;52.120;5.108;2022-11-20T05:09:19;19.58;;;12.60;;
12591;SDS011;6361;52.120;5.108;2022-11-20T05:11:44;20.10;;;13.07;;
12591;SDS011;6361;52.120;5.108;2022-11-20T05:14:09;19.00;;;12.57;;
12591;SDS011;6361;52.120;5.108;2022-11-20T05:16:35;23.10;;;12.27;;
12591;SDS011;6361;52.120;5.108;2022-11-20T05:19:01;20.45;;;12.70;;
12591;SDS011;6361;52.120;5.108;2022-11-20T05:21:26;21.27;;;12.38;;
12591;SDS011;6361;52.120;5.108;2022-11-20T05:23:52;19.42;;;12.57;;
12591;SDS011;6361;52.120;5.108;2022-11-20T05:26:19;18.15;;;11.68;;
12591;SDS011;6361;52.120;5.108;2022-11-20T05:28:46;21.20;;;12.73;;
12591;SDS011;6361;52.120;5.108;2022-11-20T05:31:13;20.45;;;13.02;;
12591;SDS011;6361;52.120;5.108;2022-11-20T05:33:41;18.90;;;11.60;;
12591;SDS011;6361;52.120;5.108;2022-11-20T05:36:07;20.85;;;13.20;;
12591;SDS011;6361;52.120;5.108;2022-11-20T05:38:34;20.77;;;12.73;;
12591;SDS011;6361;52.120;5.108;2022-11-20T05:41:06;21.23;;;12.35;;
12591;SDS011;6361;52.120;5.108;2022-11-20T05:43:33;21.08;;;12.65;;
12591;SDS011;6361;52.120;5.108;2022-11-20T05:45:59;20.05;;;11.65;;
12591;SDS011;6361;52.120;5.108;2022-11-20T05:48:25;21.25;;;12.93;;
12591;SDS011;6361;52.120;5.108;2022-11-20T05:50:50;20.23;;;12.65;;
12591;SDS011;6361;52.120;5.108;2022-11-20T05:53:16;22.67;;;13.02;;
12591;SDS011;6361;52.120;5.108;2022-11-20T05:55:41;20.85;;;12.75;;
12591;SDS011;6361;52.120;5.108;2022-11-20T05:58:06;23.65;;;13.73;;
12591;SDS011;6361;52.120;5.108;2022-11-20T06:00:32;20.25;;;12.45;;
12591;SDS011;6361;52.120;5.108;2022-11-20T06:02:57;22.17;;;13.02;;
12591;SDS011;6361;52.120;5.108;2022-11-20T06:05:22;20.90;;;12.50;;
12591;SDS011;6361;52.120;5.108;2022-11-20T06:07:48;22.85;;;12.20;;
12591;SDS011;6361;52.120;5.108;2022-11-20T06:10:13;21.05;;;12.48;;
12591;SDS011;6361;52.120;5.108;2022-11-20T06:12:39;22.08;;;13.02;;
12591;SDS011;6361;52.120;5.108;2022-11-20T06:15:04;19.25;;;11.95;;
12591;SDS011;6361;52.120;5.108;2022-11-20T06:17:30;21.85;;;12.85;;
12591;SDS011;6361;52.120;5.108;2022-11-20T06:19:58;23.50;;;13.75;;
12591;SDS011;6361;52.120;5.108;2022-11-20T06:22:24;22.58;;;13.57;;
12591;SDS011;6361;52.120;5.108;2022-11-20T06:24:49;20.17;;;12.30;;
12591;SDS011;6361;52.120;5.108;2022-11-20T06:27:15;20.73;;;12.80;;
12591;SDS011;6361;52.120;5.108;2022-11-20T06:29:41;21.88;;;13.00;;
12591;SDS011;6361;52.120;5.108;2022-11-20T06:32:06;21.70;;;13.23;;
12591;SDS011;6361;52.120;5.108;2022-11-20T06:34:31;20.38;;;12.52;;
12591;SDS011;6361;52.120;5.108;2022-11-20T06:36:57;30.67;;;13.90;;
12591;SDS011;6361;52.120;5.108;2022-11-20T06:39:22;21.00;;;13.10;;
12591;SDS011;6361;52.120;5.108;2022-11-20T06:41:47;22.08;;;13.35;;
12591;SDS011;6361;52.120;5.108;2022-11-20T06:44:13;22.58;;;13.27;;
12591;SDS011;6361;52.120;5.108;2022-11-20T06:46:38;23.15;;;13.02;;
12591;SDS011;6361;52.120;5.108;2022-11-20T06:49:03;22.48;;;12.77;;
12591;SDS011;6361;52.120;5.108;2022-11-20T06:51:29;22.73;;;14.02;;
12591;SDS011;6361;52.120;5.108;2022-11-20T06:53:55;22.73;;;14.05;;
12591;SDS011;6361;52.120;5.108;2022-11-20T06:56:20;22.23;;;13.65;;
12591;SDS011;6361;52.120;5.108;2022-11-20T06:58:45;21.77;;;13.63;;
12591;SDS011;6361;52.120;5.108;2022-11-20T07:01:12;22.08;;;14.02;;
12591;SDS011;6361;52.120;5.108;2022-11-20T07:03:38;24.58;;;14.70;;
12591;SDS011;6361;52.120;5.108;2022-11-20T07:06:04;22.90;;;13.98;;
12591;SDS011;6361;52.120;5.108;2022-11-20T07:08:30;23.98;;;13.20;;
12591;SDS011;6361;52.120;5.108;2022-11-20T07:10:59;25.15;;;14.10;;
12591;SDS011;6361;52.120;5.108;2022-11-20T07:13:25;23.48;;;13.45;;
12591;SDS011;6361;52.120;5.108;2022-11-20T07:15:51;25.35;;;14.23;;
12591;SDS011;6361;52.120;5.108;2022-11-20T07:18:17;38.00;;;16.83;;
12591;SDS011;6361;52.120;5.108;2022-11-20T07:20:42;35.92;;;15.43;;
12591;SDS011;6361;52.120;5.108;2022-11-20T07:23:08;26.73;;;15.02;;
12591;SDS011;6361;52.120;5.108;2022-11-20T07:25:33;21.63;;;13.60;;
12591;SDS011;6361;52.120;5.108;2022-11-20T07:27:59;23.88;;;14.52;;
12591;SDS011;6361;52.120;5.108;2022-11-20T07:30:24;23.08;;;14.43;;
12591;SDS011;6361;52.120;5.108;2022-11-20T07:32:52;22.33;;;14.45;;
12591;SDS011;6361;52.120;5.108;2022-11-20T07:35:18;24.50;;;14.38;;
12591;SDS011;6361;52.120;5.108;2022-11-20T07:37:44;24.05;;;13.90;;
12591;SDS011;6361;52.120;5.108;2022-11-20T07:40:11;23.67;;;14.50;;
12591;SDS011;6361;52.120;5.108;2022-11-20T07:42:37;25.20;;;14.90;;
12591;SDS011;6361;52.120;5.108;2022-11-20T07:45:02;23.92;;;14.63;;
12591;SDS011;6361;52.120;5.108;2022-11-20T07:47:28;23.58;;;13.82;;
12591;SDS011;6361;52.120;5.108;2022-11-20T07:49:53;24.40;;;14.55;;
12591;SDS011;6361;52.120;5.108;2022-11-20T07:52:18;23.45;;;14.48;;
12591;SDS011;6361;52.120;5.108;2022-11-20T07:54:44;24.58;;;14.07;;
12591;SDS011;6361;52.120;5.108;2022-11-20T07:57:09;23.98;;;14.55;;
12591;SDS011;6361;52.120;5.108;2022-11-20T07:59:35;23.63;;;14.43;;
12591;SDS011;6361;52.120;5.108;2022-11-20T08:02:00;25.83;;;14.63;;
12591;SDS011;6361;52.120;5.108;2022-11-20T08:04:26;23.85;;;14.05;;
12591;SDS011;6361;52.120;5.108;2022-11-20T08:06:51;23.52;;;13.65;;
12591;SDS011;6361;52.120;5.108;2022-11-20T08:09:17;26.77;;;14.85;;
12591;SDS011;6361;52.120;5.108;2022-11-20T08:11:45;22.08;;;13.85;;
12591;SDS011;6361;52.120;5.108;2022-11-20T08:14:30;26.38;;;14.30;;
12591;SDS011;6361;52.120;5.108;2022-11-20T08:16:55;29.13;;;15.82;;
12591;SDS011;6361;52.120;5.108;2022-11-20T08:19:20;26.55;;;15.80;;
12591;SDS011;6361;52.120;5.108;2022-11-20T08:21:46;25.38;;;15.60;;
12591;SDS011;6361;52.120;5.108;2022-11-20T08:24:11;26.58;;;15.18;;
12591;SDS011;6361;52.120;5.108;2022-11-20T08:26:37;28.48;;;15.80;;
12591;SDS011;6361;52.120;5.108;2022-11-20T08:29:03;25.90;;;14.93;;
12591;SDS011;6361;52.120;5.108;2022-11-20T08:31:29;24.90;;;14.85;;
12591;SDS011;6361;52.120;5.108;2022-11-20T08:33:55;27.27;;;14.75;;
12591;SDS011;6361;52.120;5.108;2022-11-20T08:36:20;26.48;;;15.75;;
12591;SDS011;6361;52.120;5.108;2022-11-20T08:38:49;23.98;;;14.95;;
12591;SDS011;6361;52.120;5.108;2022-11-20T08:41:15;26.52;;;16.20;;
12591;SDS011;6361;52.120;5.108;2022-11-20T08:43:57;27.35;;;16.13;;
12591;SDS011;6361;52.120;5.108;2022-11-20T08:46:28;28.50;;;16.20;;
12591;SDS011;6361;52.120;5.108;2022-11-20T08:49:02;26.30;;;16.08;;
12591;SDS011;6361;52.120;5.108;2022-11-20T08:51:31;28.83;;;16.75;;
12591;SDS011;6361;52.120;5.108;2022-11-20T08:53:56;26.58;;;16.05;;
12591;SDS011;6361;52.120;5.108;2022-11-20T08:56:21;27.67;;;16.17;;
12591;SDS011;6361;52.120;5.108;2022-11-20T08:58:47;28.50;;;16.67;;
12591;SDS011;6361;52.120;5.108;2022-11-20T09:01:12;29.40;;;16.75;;
12591;SDS011;6361;52.120;5.108;2022-11-20T09:03:37;27.50;;;16.60;;
12591;SDS011;6361;52.120;5.108;2022-11-20T09:06:04;30.85;;;16.23;;
12591;SDS011;6361;52.120;5.108;2022-11-20T09:08:33;28.98;;;16.23;;
12591;SDS011;6361;52.120;5.108;2022-11-20T09:11:00;32.13;;;17.55;;
12591;SDS011;6361;52.120;5.108;2022-11-20T09:13:26;29.20;;;17.02;;
12591;SDS011;6361;52.120;5.108;2022-11-20T09:15:56;27.98;;;16.80;;
12591;SDS011;6361;52.120;5.108;2022-11-20T09:18:23;29.25;;;17.17;;
12591;SDS011;6361;52.120;5.108;2022-11-20T09:20:48;30.90;;;17.77;;
12591;SDS011;6361;52.120;5.108;2022-11-20T09:23:14;29.55;;;17.25;;
12591;SDS011;6361;52.120;5.108;2022-11-20T09:25:40;29.73;;;17.50;;
12591;SDS011;6361;52.120;5.108;2022-11-20T09:28:06;29.27;;;17.05;;
12591;SDS011;6361;52.120;5.108;2022-11-20T09:30:31;26.80;;;16.48;;
12591;SDS011;6361;52.120;5.108;2022-11-20T09:32:56;28.27;;;16.92;;
12591;SDS011;6361;52.120;5.108;2022-11-20T09:35:22;28.25;;;17.30;;
12591;SDS011;6361;52.120;5.108;2022-11-20T09:37:47;30.95;;;17.50;;
12591;SDS011;6361;52.120;5.108;2022-11-20T09:40:26;30.63;;;17.33;;
12591;SDS011;6361;52.120;5.108;2022-11-20T09:56:26;34.47;;;17.95;;
12591;SDS011;6361;52.120;5.108;2022-11-20T09:58:52;29.75;;;17.58;;
12591;SDS011;6361;52.120;5.108;2022-11-20T10:01:26;31.92;;;17.85;;
12591;SDS011;6361;52.120;5.108;2022-11-20T10:04:12;30.75;;;18.00;;
12591;SDS011;6361;52.120;5.108;2022-11-20T10:06:47;28.83;;;17.95;;
12591;SDS011;6361;52.120;5.108;2022-11-20T10:26:31;32.70;;;18.05;;
12591;SDS011;6361;52.120;5.108;2022-11-20T10:29:13;31.73;;;18.92;;
12591;SDS011;6361;52.120;5.108;2022-11-20T10:31:44;34.83;;;19.05;;
12591;SDS011;6361;52.120;5.108;2022-11-20T10:34:22;30.58;;;18.77;;
12591;SDS011;6361;52.120;5.108;2022-11-20T10:37:02;32.10;;;19.17;;
12591;SDS011;6361;52.120;5.108;2022-11-20T10:39:39;30.42;;;18.90;;
12591;SDS011;6361;52.120;5.108;2022-11-20T10:42:11;29.35;;;17.58;;
12591;SDS011;6361;52.120;5.108;2022-11-20T10:44:38;33.63;;;19.85;;
12591;SDS011;6361;52.120;5.108;2022-11-20T10:47:24;34.75;;;20.38;;
12591;SDS011;6361;52.120;5.108;2022-11-20T10:49:51;32.85;;;19.50;;
12591;SDS011;6361;52.120;5.108;2022-11-20T10:55:06;33.50;;;19.98;;
12591;SDS011;6361;52.120;5.108;2022-11-20T10:58:05;36.47;;;20.02;;
12591;SDS011;6361;52.120;5.108;2022-11-20T11:00:37;36.33;;;19.75;;
12591;SDS011;6361;52.120;5.108;2022-11-20T11:03:02;35.05;;;19.83;;
12591;SDS011;6361;52.120;5.108;2022-11-20T11:08:14;37.05;;;21.13;;
12591;SDS011;6361;52.120;5.108;2022-11-20T11:13:20;35.10;;;21.33;;
12591;SDS011;6361;52.120;5.108;2022-11-20T11:15:50;34.15;;;20.80;;
12591;SDS011;6361;52.120;5.108;2022-11-20T11:18:26;38.53;;;21.67;;
12591;SDS011;6361;52.120;5.108;2022-11-20T11:20:53;36.40;;;21.85;;
12591;SDS011;6361;52.120;5.108;2022-11-20T11:23:30;38.78;;;22.65;;
12591;SDS011;6361;52.120;5.108;2022-11-20T11:26:00;34.55;;;21.52;;
12591;SDS011;6361;52.120;5.108;2022-11-20T11:28:27;39.10;;;22.13;;
12591;SDS011;6361;52.120;5.108;2022-11-20T11:30:53;43.97;;;23.88;;
12591;SDS011;6361;52.120;5.108;2022-11-20T11:33:23;40.40;;;21.63;;
12591;SDS011;6361;52.120;5.108;2022-11-20T11:35:55;37.30;;;21.95;;
12591;SDS011;6361;52.120;5.108;2022-11-20T11:38:34;40.63;;;23.70;;
12591;SDS011;6361;52.120;5.108;2022-11-20T11:41:01;41.72;;;22.27;;
12591;SDS011;6361;52.120;5.108;2022-11-20T11:43:34;40.03;;;22.20;;
12591;SDS011;6361;52.120;5.108;2022-11-20T11:46:32;44.55;;;24.10;;
12591;SDS011;6361;52.120;5.108;2022-11-20T11:51:26;44.30;;;23.33;;
12591;SDS011;6361;52.120;5.108;2022-11-20T11:53:54;41.72;;;22.92;;
12591;SDS011;6361;52.120;5.108;2022-11-20T11:56:20;43.20;;;24.80;;
12591;SDS011;6361;52.120;5.108;2022-11-20T11:58:47;41.80;;;22.40;;
12591;SDS011;6361;52.120;5.108;2022-11-20T12:07:08;48.90;;;25.13;;
12591;SDS011;6361;52.120;5.108;2022-11-20T12:09:39;49.45;;;24.95;;
12591;SDS011;6361;52.120;5.108;2022-11-20T12:12:09;54.53;;;26.38;;
12591;SDS011;6361;52.120;5.108;2022-11-20T12:14:38;51.80;;;25.65;;
12591;SDS011;6361;52.120;5.108;2022-11-20T12:17:07;51.75;;;26.05;;
12591;SDS011;6361;52.120;5.108;2022-11-20T12:19:36;51.00;;;25.88;;
12591;SDS011;6361;52.120;5.108;2022-11-20T12:24:56;55.42;;;26.13;;
12591;SDS011;6361;52.120;5.108;2022-11-20T12:30:16;52.35;;;26.85;;
12591;SDS011;6361;52.120;5.108;2022-11-20T12:47:19;54.33;;;27.45;;
12591;SDS011;6361;52.120;5.108;2022-11-20T13:07:08;47.70;;;25.15;;
12591;SDS011;6361;52.120;5.108;2022-11-20T13:09:40;48.55;;;26.63;;
12591;SDS011;6361;52.120;5.108;2022-11-20T13:14:52;51.13;;;26.52;;
12591;SDS011;6361;52.120;5.108;2022-11-20T13:20:00;51.58;;;26.08;;
12591;SDS011;6361;52.120;5.108;2022-11-20T13:22:28;56.72;;;27.70;;
12591;SDS011;6361;52.120;5.108;2022-11-20T13:25:08;49.92;;;24.88;;
12591;SDS011;6361;52.120;5.108;2022-11-20T13:27:35;55.10;;;27.58;;
12591;SDS011;6361;52.120;5.108;2022-11-20T13:30:16;47.80;;;25.88;;
12591;SDS011;6361;52.120;5.108;2022-11-20T13:32:47;48.80;;;26.30;;
12591;SDS011;6361;52.120;5.108;2022-11-20T13:35:24;50.78;;;25.92;;
12591;SDS011;6361;52.120;5.108;2022-11-20T13:40:32;53.95;;;27.77;;
12591;SDS011;6361;52.120;5.108;2022-11-20T13:45:36;54.88;;;27.23;;
12591;SDS011;6361;52.120;5.108;2022-11-20T13:48:02;52.05;;;27.30;;
12591;SDS011;6361;52.120;5.108;2022-11-20T13:53:04;41.72;;;22.00;;
12591;SDS011;6361;52.120;5.108;2022-11-20T13:55:59;53.03;;;26.23;;
12591;SDS011;6361;52.120;5.108;2022-11-20T14:01:29;54.28;;;27.35;;
12591;SDS011;6361;52.120;5.108;2022-11-20T14:03:58;57.50;;;28.65;;
12591;SDS011;6361;52.120;5.108;2022-11-20T14:06:26;59.40;;;28.85;;
12591;SDS011;6361;52.120;5.108;2022-11-20T14:08:52;59.92;;;28.70;;
12591;SDS011;6361;52.120;5.108;2022-11-20T14:11:22;53.80;;;26.95;;
12591;SDS011;6361;52.120;5.108;2022-11-20T14:16:38;54.80;;;28.90;;
12591;SDS011;6361;52.120;5.108;2022-11-20T14:21:45;62.70;;;28.95;;
12591;SDS011;6361;52.120;5.108;2022-11-20T14:24:11;59.25;;;28.55;;
12591;SDS011;6361;52.120;5.108;2022-11-20T14:26:38;63.35;;;29.73;;
12591;SDS011;6361;52.120;5.108;2022-11-20T14:29:11;57.72;;;28.90;;
12591;SDS011;6361;52.120;5.108;2022-11-20T14:31:38;56.13;;;28.95;;
12591;SDS011;6361;52.120;5.108;2022-11-20T14:34:03;57.45;;;29.52;;
12591;SDS011;6361;52.120;5.108;2022-11-20T14:36:29;59.10;;;28.92;;
12591;SDS011;6361;52.120;5.108;2022-11-20T14:38:54;65.05;;;31.17;;
12591;SDS011;6361;52.120;5.108;2022-11-20T14:41:23;62.55;;;30.40;;
12591;SDS011;6361;52.120;5.108;2022-11-20T14:43:58;57.45;;;28.85;;
12591;SDS011;6361;52.120;5.108;2022-11-20T14:46:24;59.30;;;29.67;;
12591;SDS011;6361;52.120;5.108;2022-11-20T14:48:51;54.53;;;29.60;;
12591;SDS011;6361;52.120;5.108;2022-11-20T14:51:32;56.08;;;27.52;;
12591;SDS011;6361;52.120;5.108;2022-11-20T14:54:14;55.25;;;28.40;;
12591;SDS011;6361;52.120;5.108;2022-11-20T14:56:40;59.57;;;30.53;;
12591;SDS011;6361;52.120;5.108;2022-11-20T14:59:05;62.13;;;29.83;;
12591;SDS011;6361;52.120;5.108;2022-11-20T15:01:32;61.63;;;30.52;;
12591;SDS011;6361;52.120;5.108;2022-11-20T15:04:09;58.80;;;29.60;;
12591;SDS011;6361;52.120;5.108;2022-11-20T15:06:36;57.75;;;29.70;;
12591;SDS011;6361;52.120;5.108;2022-11-20T15:09:12;59.40;;;28.30;;
12591;SDS011;6361;52.120;5.108;2022-11-20T15:11:39;58.38;;;28.42;;
12591;SDS011;6361;52.120;5.108;2022-11-20T15:14:05;58.85;;;28.52;;
12591;SDS011;6361;52.120;5.108;2022-11-20T15:16:31;61.55;;;30.60;;
12591;SDS011;6361;52.120;5.108;2022-11-20T15:18:56;59.65;;;29.42;;
12591;SDS011;6361;52.120;5.108;2022-11-20T15:21:22;55.88;;;29.08;;
12591;SDS011;6361;52.120;5.108;2022-11-20T15:23:48;60.22;;;29.35;;
12591;SDS011;6361;52.120;5.108;2022-11-20T15:26:14;54.80;;;29.17;;
12591;SDS011;6361;52.120;5.108;2022-11-20T15:28:45;60.13;;;29.42;;
12591;SDS011;6361;52.120;5.108;2022-11-20T15:31:13;55.10;;;28.67;;
12591;SDS011;6361;52.120;5.108;2022-11-20T15:33:39;49.65;;;27.02;;
12591;SDS011;6361;52.120;5.108;2022-11-20T15:36:05;62.45;;;30.10;;
12591;SDS011;6361;52.120;5.108;2022-11-20T15:38:30;45.10;;;24.33;;
12591;SDS011;6361;52.120;5.108;2022-11-20T15:40:56;54.03;;;26.58;;
12591;SDS011;6361;52.120;5.108;2022-11-20T15:43:22;49.40;;;26.17;;
12591;SDS011;6361;52.120;5.108;2022-11-20T15:45:48;41.47;;;23.88;;
12591;SDS011;6361;52.120;5.108;2022-11-20T15:48:36;48.15;;;25.13;;
12591;SDS011;6361;52.120;5.108;2022-11-20T15:53:40;47.20;;;25.02;;
12591;SDS011;6361;52.120;5.108;2022-11-20T15:56:13;44.90;;;25.50;;
12591;SDS011;6361;52.120;5.108;2022-11-20T15:58:39;46.38;;;24.60;;
12591;SDS011;6361;52.120;5.108;2022-11-20T16:01:05;42.78;;;24.77;;
12591;SDS011;6361;52.120;5.108;2022-11-20T16:03:30;42.60;;;24.42;;
12591;SDS011;6361;52.120;5.108;2022-11-20T16:05:56;45.85;;;24.85;;
12591;SDS011;6361;52.120;5.108;2022-11-20T16:08:39;40.75;;;23.77;;
12591;SDS011;6361;52.120;5.108;2022-11-20T16:11:10;39.65;;;22.98;;
12591;SDS011;6361;52.120;5.108;2022-11-20T16:13:37;41.83;;;24.60;;
12591;SDS011;6361;52.120;5.108;2022-11-20T16:16:25;44.78;;;24.38;;
12591;SDS011;6361;52.120;5.108;2022-11-20T16:18:53;42.03;;;24.00;;
12591;SDS011;6361;52.120;5.108;2022-11-20T16:21:19;40.45;;;22.38;;
12591;SDS011;6361;52.120;5.108;2022-11-20T16:23:45;38.53;;;22.48;;
12591;SDS011;6361;52.120;5.108;2022-11-20T16:26:11;38.45;;;22.95;;
12591;SDS011;6361;52.120;5.108;2022-11-20T16:28:38;39.50;;;23.60;;
12591;SDS011;6361;52.120;5.108;2022-11-20T16:31:10;42.97;;;23.50;;
12591;SDS011;6361;52.120;5.108;2022-11-20T16:33:36;38.88;;;23.02;;
12591;SDS011;6361;52.120;5.108;2022-11-20T16:36:14;43.30;;;24.27;;